»·PEaware :: N1374U KTUS-KPHX

N1374U :: KTUS-KPHX

FLIGHT INFORMATION

Flight Status: Arrived
Operator: Privately registered:
United States
More flights under this callsign
Pilot: Herbert L. (28081)
Aircraft: CESSNA 172 SKYHAWK
(C172)
More flights by this aircraft type
Origin: KTUS Tucson Intl
United States
Destination: KPHX Phoenix Sky Harbor Intl
United States
More flights between these airports :: More routes between these airports
Route: +TUS V105 PXR
File this flight plan on PilotEdge
Remarks:
Altitude:
(Current/Filed)
8,000ft
Speed:
(Current/Filed)
105kts
Departed: 18-Sep-20 04:53 PM
Arrived: 18-Sep-20 06:01 PM
Distance/Time
Traveled:
96nm/1:08
Distance/Time
To Go:
Arrived

Flight Plot

Page will automatically refresh every two minutes.

Flight plan parsing failed; only flown route is shown


Map Options




Map Legend


Flown Route
Filed Route
Departure Airport
Arrival Airport
Navaid (VOR, NDB)
Fix

Horizontal Profiles

Position Reports

Time Latitude Longitude Heading Altitude Ground
Speed
18-Sep-20 16:25 32.124511 -110.955645 81 2647ft 0kts
18-Sep-20 16:26 32.124511 -110.955645 81 2647ft 0kts
18-Sep-20 16:27 32.124511 -110.955645 81 2647ft 0kts
18-Sep-20 16:28 32.124511 -110.955645 81 2647ft 0kts
18-Sep-20 16:29 32.124511 -110.955645 81 2647ft 0kts
18-Sep-20 16:30 32.124511 -110.955645 81 2647ft 0kts
18-Sep-20 16:31 32.124511 -110.955645 81 2647ft 0kts
18-Sep-20 16:32 32.124511 -110.955645 81 2647ft 0kts
18-Sep-20 16:33 32.124511 -110.955645 81 2647ft 0kts
18-Sep-20 16:34 32.124511 -110.955645 81 2647ft 0kts
18-Sep-20 16:35 32.124511 -110.955645 81 2647ft 0kts
18-Sep-20 16:36 32.124511 -110.955645 81 2647ft 0kts
18-Sep-20 16:37 32.124511 -110.955645 81 2647ft 0kts
18-Sep-20 16:38 32.124511 -110.955645 81 2647ft 0kts
18-Sep-20 16:39 32.124511 -110.955645 81 2647ft 0kts
18-Sep-20 16:40 32.124511 -110.955646 81 2647ft 0kts
18-Sep-20 16:41 32.124552 -110.955780 90 2647ft 0kts
18-Sep-20 16:42 32.124552 -110.955780 90 2647ft 0kts
18-Sep-20 16:43 32.124552 -110.955780 90 2647ft 0kts
18-Sep-20 16:45 32.124552 -110.955780 90 2647ft 0kts
18-Sep-20 16:46 32.124552 -110.955780 90 2647ft 0kts
18-Sep-20 16:47 32.124552 -110.955780 90 2647ft 0kts
18-Sep-20 16:48 32.124631 -110.955274 72 2647ft 7kts
18-Sep-20 16:49 32.124718 -110.952719 143 2647ft 2kts
18-Sep-20 16:50 32.124024 -110.952239 155 2647ft 0kts
18-Sep-20 16:51 32.123462 -110.951247 105 2647ft 10kts
18-Sep-20 16:52 32.121578 -110.949047 134 2647ft 13kts
18-Sep-20 16:53 32.109381 -110.936259 128 3174ft 68kts
18-Sep-20 16:54 32.093703 -110.918958 129 3789ft 85kts
18-Sep-20 16:55 32.077357 -110.899930 128 4569ft 74kts
18-Sep-20 16:56 32.064467 -110.884923 128 5268ft 71kts
18-Sep-20 16:57 32.048376 -110.864774 128 5793ft 95kts
18-Sep-20 16:58 32.057051 -110.845349 1 6285ft 107kts
18-Sep-20 16:58 32.080156 -110.849194 359 6684ft 95kts
18-Sep-20 17:00 32.107883 -110.856279 327 7237ft 85kts
18-Sep-20 17:01 32.111158 -110.880289 249 7501ft 98kts
18-Sep-20 17:02 32.120281 -110.914376 289 7790ft 129kts
18-Sep-20 17:02 32.129769 -110.948571 289 7875ft 132kts
18-Sep-20 17:03 32.134928 -110.991154 295 7973ft 130kts
18-Sep-20 17:05 32.155479 -111.035346 303 7982ft 132kts
18-Sep-20 17:05 32.171103 -111.066679 303 7979ft 132kts
18-Sep-20 17:06 32.189745 -111.104054 303 7973ft 131kts
18-Sep-20 17:07 32.208149 -111.141000 302 7966ft 130kts
18-Sep-20 17:08 32.226524 -111.177920 302 7960ft 130kts
18-Sep-20 17:09 32.244879 -111.214820 302 7953ft 130kts
18-Sep-20 17:10 32.263242 -111.251769 301 7947ft 130kts
18-Sep-20 17:11 32.281541 -111.288630 301 7941ft 130kts
18-Sep-20 17:12 32.299796 -111.325440 301 7935ft 130kts
18-Sep-20 17:13 32.318065 -111.362311 301 7928ft 130kts
18-Sep-20 17:14 32.336319 -111.399192 301 7926ft 129kts
18-Sep-20 17:15 32.354815 -111.436626 301 7928ft 137kts
18-Sep-20 17:16 32.374478 -111.476481 301 7927ft 141kts
18-Sep-20 17:17 32.401572 -111.508866 326 7927ft 140kts
18-Sep-20 17:18 32.433149 -111.535314 327 7927ft 137kts
18-Sep-20 17:19 32.463951 -111.560658 327 7928ft 135kts
18-Sep-20 17:20 32.495201 -111.586333 327 7926ft 138kts
18-Sep-20 17:21 32.526759 -111.612259 327 7919ft 137kts
18-Sep-20 17:22 32.557907 -111.637862 327 7912ft 135kts
18-Sep-20 17:23 32.588716 -111.663206 326 7906ft 134kts
18-Sep-20 17:24 32.619276 -111.688370 326 7901ft 133kts
18-Sep-20 17:25 32.649635 -111.713391 326 7899ft 133kts
18-Sep-20 17:26 32.679943 -111.738392 326 7899ft 132kts
18-Sep-20 17:27 32.710284 -111.763440 326 7899ft 132kts
18-Sep-20 17:28 32.740568 -111.788461 326 7899ft 132kts
18-Sep-20 17:29 32.770845 -111.813497 326 7899ft 132kts
18-Sep-20 17:30 32.800419 -111.837988 326 8050ft 125kts
18-Sep-20 17:31 32.829918 -111.862408 326 8055ft 132kts
18-Sep-20 17:32 32.860128 -111.887451 326 8054ft 132kts
18-Sep-20 17:33 32.892019 -111.907846 352 8054ft 130kts
18-Sep-20 17:34 32.928121 -111.913168 355 8054ft 130kts
18-Sep-20 17:35 32.964284 -111.917480 356 8054ft 130kts
18-Sep-20 17:36 33.000525 -111.921567 356 8050ft 131kts
18-Sep-20 17:37 33.037115 -111.925660 356 8046ft 132kts
18-Sep-20 17:38 33.073939 -111.929782 356 8042ft 134kts
18-Sep-20 17:39 33.111177 -111.933954 356 8037ft 135kts
18-Sep-20 17:40 33.148696 -111.938163 356 8034ft 135kts
18-Sep-20 17:41 33.186106 -111.943106 337 8026ft 136kts
18-Sep-20 17:42 33.207959 -111.971483 310 7608ft 107kts
18-Sep-20 17:43 33.227875 -112.000476 310 7121ft 124kts
18-Sep-20 17:44 33.250398 -112.033377 310 6626ft 130kts
18-Sep-20 17:45 33.273310 -112.067099 310 6127ft 131kts
18-Sep-20 17:46 33.296935 -112.102066 310 5634ft 142kts
18-Sep-20 17:47 33.322004 -112.139115 310 5136ft 143kts
18-Sep-20 17:48 33.343950 -112.171693 310 4740ft 119kts
18-Sep-20 17:49 33.364884 -112.202754 310 4243ft 121kts
18-Sep-20 17:50 33.385534 -112.233253 310 4012ft 109kts
18-Sep-20 17:51 33.405999 -112.263379 310 4016ft 120kts
18-Sep-20 17:52 33.428778 -112.262842 83 4011ft 98kts
18-Sep-20 17:53 33.428495 -112.230468 88 4015ft 98kts
18-Sep-20 17:54 33.428574 -112.197017 88 3836ft 106kts
18-Sep-20 17:55 33.428802 -112.161904 88 3354ft 103kts
18-Sep-20 17:56 33.428844 -112.129695 88 2854ft 89kts
18-Sep-20 17:57 33.428860 -112.099277 88 2357ft 93kts
18-Sep-20 17:58 33.428705 -112.068127 86 1850ft 93kts
18-Sep-20 17:59 33.428783 -112.036741 88 1347ft 94kts
18-Sep-20 18:00 33.428811 -112.016999 97 1136ft 17kts
18-Sep-20 18:01 33.427750 -112.017292 270 1136ft 10kts
18-Sep-20 18:02 33.427748 -112.021959 269 1136ft 15kts
18-Sep-20 18:03 33.427141 -112.023725 93 1136ft 0kts
18-Sep-20 18:04 33.427141 -112.023725 93 1136ft 0kts
18-Sep-20 18:05 33.427141 -112.023725 93 1136ft 0kts

Navigation Log

Ident Type
Flight plan parsing failed, navigation log unavailable